createdAt,value
2023-03-29T18:37:46.124Z,57.7773
2023-03-29T18:38:47.948Z,57.3915
2023-03-29T18:39:49.582Z,57.1285
2023-03-29T18:40:51.333Z,56.7969
2023-03-29T18:41:53.020Z,56.4554
2023-03-29T18:42:54.761Z,56.3985
2023-03-29T18:43:56.402Z,55.8692
2023-03-29T18:44:58.162Z,57.5685
2023-03-29T18:45:59.945Z,54.7954
2023-03-29T18:47:01.702Z,54.5762
2023-03-29T18:48:03.352Z,54.0654
2023-03-29T18:49:05.066Z,53.3354
2023-03-29T18:50:06.717Z,53.0038
2023-03-29T18:51:08.522Z,52.8215
2023-03-29T18:52:10.130Z,52.5931
2023-03-29T18:53:11.875Z,52.3969
2023-03-29T18:54:13.590Z,52.3077
2023-03-29T18:55:15.297Z,52.0577
2023-03-29T18:56:17.024Z,52.0877
2023-03-29T18:57:18.840Z,51.6154
2023-03-29T18:58:20.453Z,51.9431
2023-03-29T18:59:22.161Z,52.1377
2023-03-29T19:00:23.867Z,51.4931
2023-03-29T19:01:25.722Z,52.5338
2023-03-29T19:02:27.350Z,51.2385
2023-03-29T19:03:29.212Z,50.9185
2023-03-29T19:18:48.734Z,48.3964
2023-03-29T19:19:50.500Z,48.4569
2023-03-29T19:20:52.205Z,48.3538
2023-03-29T19:21:53.918Z,48.4354
2023-03-29T19:22:55.639Z,48.4923
2023-03-29T19:23:57.386Z,48.9262
2023-03-29T19:24:59.045Z,47.2038
2023-03-29T19:26:00.855Z,46.9738
2023-03-29T19:27:02.532Z,48.6015
2023-03-29T19:28:04.258Z,47.8677
2023-03-29T19:29:05.931Z,47.9069
2023-03-29T19:30:07.676Z,48.4946
2023-03-29T19:31:09.382Z,48.7685
2023-03-29T19:32:11.123Z,48.9431
2023-03-29T19:33:12.857Z,48.7408
2023-03-29T19:34:14.510Z,48.5362
2023-03-29T19:35:16.203Z,48.2869
2023-03-29T19:36:17.979Z,48.1085
2023-03-29T19:37:19.692Z,47.9862
2023-03-29T19:38:21.393Z,47.9785
2023-03-29T19:39:23.173Z,48.0838
2023-03-29T19:40:24.789Z,47.8377
2023-03-29T19:41:26.509Z,47.7315
2023-03-29T19:42:28.235Z,47.7069
2023-03-29T19:43:29.953Z,47.6785
2023-03-29T19:44:31.653Z,47.7108
